createdAt,value
2018-12-20T00:01:49.121Z,4.50
2018-12-20T00:04:16.773Z,4.60
2018-12-20T00:06:44.344Z,4.50
2018-12-20T00:09:11.860Z,4.50
2018-12-20T00:11:39.566Z,4.50
2018-12-20T00:14:07.099Z,4.50
2018-12-20T00:16:34.816Z,4.50
2018-12-20T00:19:02.427Z,4.50
2018-12-20T00:21:29.975Z,4.50
2018-12-20T00:23:57.566Z,4.60
2018-12-20T00:26:25.214Z,4.50
2018-12-20T00:28:53.091Z,4.50
2018-12-20T00:31:20.639Z,4.60
2018-12-20T00:33:48.223Z,4.60
2018-12-20T00:36:15.916Z,4.60
2018-12-20T00:38:43.471Z,4.60
2018-12-20T00:41:11.069Z,4.60
2018-12-20T00:43:38.694Z,4.60
2018-12-20T00:46:06.222Z,4.60
2018-12-20T00:48:33.752Z,4.60
2018-12-20T00:51:01.500Z,4.70
2018-12-20T00:53:29.761Z,4.70
2018-12-20T00:55:57.356Z,4.70
2018-12-20T00:58:24.934Z,4.70
2018-12-20T01:00:52.581Z,4.70
2018-12-20T01:03:20.219Z,4.70
2018-12-20T01:05:48.112Z,4.70
2018-12-20T01:08:15.732Z,4.70
2018-12-20T01:10:43.227Z,4.70
2018-12-20T01:13:10.814Z,4.70
2018-12-20T01:15:38.361Z,4.70
2018-12-20T01:18:05.917Z,4.70
2018-12-20T01:20:33.490Z,4.70
2018-12-20T01:23:01.045Z,4.70
2018-12-20T01:25:28.723Z,4.70
2018-12-20T01:27:56.466Z,4.70
2018-12-20T01:30:24.045Z,4.60
2018-12-20T01:32:51.856Z,4.60
2018-12-20T01:35:20.122Z,4.60
2018-12-20T01:37:47.649Z,4.60
2018-12-20T01:40:15.142Z,4.60
2018-12-20T01:42:42.638Z,4.60
2018-12-20T01:45:10.197Z,4.70
2018-12-20T01:47:37.763Z,4.60
2018-12-20T01:50:07.226Z,4.60
2018-12-20T01:52:34.753Z,4.60
2018-12-20T01:55:02.350Z,4.60
2018-12-20T01:57:30.191Z,4.60
2018-12-20T01:59:57.858Z,4.70
2018-12-20T02:02:25.436Z,4.70
2018-12-20T02:04:53.196Z,4.60
2018-12-20T02:07:20.839Z,4.60
2018-12-20T02:09:48.453Z,4.60
2018-12-20T02:12:16.085Z,4.70
2018-12-20T02:14:43.691Z,4.60
2018-12-20T02:17:11.289Z,4.70
2018-12-20T02:19:38.964Z,4.70
2018-12-20T02:22:06.696Z,4.70
2018-12-20T02:24:34.248Z,4.60
2018-12-20T02:27:01.858Z,4.60
2018-12-20T02:29:29.393Z,4.60
2018-12-20T02:31:58.974Z,4.50
2018-12-20T02:34:26.838Z,4.50
2018-12-20T02:36:54.629Z,4.40
2018-12-20T02:39:22.389Z,4.40
2018-12-20T02:41:50.178Z,4.40
2018-12-20T02:44:17.947Z,4.40
2018-12-20T02:46:45.470Z,4.40
2018-12-20T02:49:13.297Z,4.50
2018-12-20T02:51:40.901Z,4.50
2018-12-20T02:54:08.550Z,4.40
2018-12-20T02:56:36.413Z,4.40
2018-12-20T02:59:04.045Z,4.40
2018-12-20T03:01:31.562Z,4.40
2018-12-20T03:03:59.051Z,4.40
2018-12-20T03:06:26.642Z,4.40
2018-12-20T03:08:54.152Z,4.40
2018-12-20T03:11:21.798Z,4.40
2018-12-20T03:13:49.503Z,4.40
2018-12-20T03:16:17.293Z,4.40
2018-12-20T03:18:44.881Z,4.50
2018-12-20T03:21:12.685Z,4.50
2018-12-20T03:23:40.491Z,4.50
2018-12-20T03:26:08.086Z,4.50
2018-12-20T03:28:35.651Z,4.50
2018-12-20T03:31:03.298Z,4.50
2018-12-20T03:33:30.879Z,4.60
2018-12-20T03:35:58.569Z,4.50
2018-12-20T03:38:26.212Z,4.50
2018-12-20T03:40:53.779Z,4.50
2018-12-20T03:43:21.907Z,4.50
2018-12-20T03:45:49.446Z,4.50
2018-12-20T03:48:17.006Z,4.50
2018-12-20T03:50:44.611Z,4.50
2018-12-20T03:53:12.206Z,4.50
2018-12-20T03:55:39.839Z,4.50
2018-12-20T03:58:07.695Z,4.50
2018-12-20T04:00:35.522Z,4.60
2018-12-20T04:03:03.375Z,4.60
2018-12-20T04:05:30.985Z,4.60
2018-12-20T04:07:58.518Z,4.60
2018-12-20T04:10:26.227Z,4.60
2018-12-20T04:12:53.770Z,4.60
2018-12-20T04:15:21.384Z,4.50
2018-12-20T04:17:49.048Z,4.50
2018-12-20T04:20:16.763Z,4.50
2018-12-20T04:22:44.645Z,4.50
2018-12-20T04:25:12.324Z,4.50
2018-12-20T04:27:39.909Z,4.50
2018-12-20T04:30:11.561Z,4.50
2018-12-20T04:32:39.196Z,4.50
2018-12-20T04:35:06.997Z,4.50
2018-12-20T04:37:34.754Z,4.50
2018-12-20T04:40:02.381Z,4.50
2018-12-20T04:42:30.274Z,4.50
2018-12-20T04:44:57.932Z,4.50
2018-12-20T04:47:25.485Z,4.50
2018-12-20T04:49:53.090Z,4.50
2018-12-20T04:52:20.684Z,4.50
2018-12-20T04:54:48.299Z,4.50
2018-12-20T04:57:16.145Z,4.60
2018-12-20T04:59:43.810Z,4.60
2018-12-20T05:02:11.607Z,4.60
2018-12-20T05:04:39.219Z,4.60
2018-12-20T05:07:06.819Z,4.60
2018-12-20T05:09:34.517Z,4.70
2018-12-20T05:12:02.128Z,4.70
2018-12-20T05:14:29.666Z,4.70
2018-12-20T05:16:57.358Z,4.70
2018-12-20T05:19:25.063Z,4.70
2018-12-20T05:21:52.719Z,4.70
2018-12-20T05:24:20.589Z,4.70
2018-12-20T05:26:48.341Z,4.70
2018-12-20T05:29:15.988Z,4.60
2018-12-20T05:31:43.539Z,4.70
2018-12-20T05:34:11.144Z,4.70
2018-12-20T05:36:38.672Z,4.60
2018-12-20T05:39:06.644Z,4.60
2018-12-20T05:41:34.245Z,4.60
2018-12-20T05:44:01.801Z,4.60
2018-12-20T05:46:29.477Z,4.60
2018-12-20T05:48:57.210Z,4.60
2018-12-20T05:51:24.897Z,4.60
2018-12-20T05:53:52.528Z,4.60
2018-12-20T05:56:20.082Z,4.60
2018-12-20T05:58:48.068Z,4.60
2018-12-20T06:01:15.712Z,4.60
2018-12-20T06:03:43.237Z,4.60
2018-12-20T06:06:10.934Z,4.60
2018-12-20T06:08:38.680Z,4.60
2018-12-20T06:11:06.214Z,4.60
2018-12-20T06:13:33.861Z,4.60
2018-12-20T06:16:01.596Z,4.60
2018-12-20T06:18:29.434Z,4.60
2018-12-20T06:20:57.067Z,4.60
2018-12-20T06:23:24.688Z,4.60
2018-12-20T06:25:52.316Z,4.60
2018-12-20T06:28:19.844Z,4.60
2018-12-20T06:30:47.343Z,4.60
2018-12-20T06:33:14.848Z,4.60
2018-12-20T06:35:42.378Z,4.60
2018-12-20T06:38:09.883Z,4.50
2018-12-20T06:40:37.411Z,4.50
2018-12-20T06:43:04.917Z,4.50
2018-12-20T06:45:32.448Z,4.50
2018-12-20T06:47:59.952Z,4.50
2018-12-20T06:50:27.480Z,4.50
2018-12-20T06:52:54.988Z,4.50
2018-12-20T06:55:22.494Z,4.50
2018-12-20T06:57:50.020Z,4.60
2018-12-20T07:00:17.533Z,4.60
2018-12-20T07:02:45.064Z,4.60
2018-12-20T07:05:12.572Z,4.70
2018-12-20T07:07:40.095Z,4.70
2018-12-20T07:10:08.759Z,4.70
2018-12-20T07:12:36.284Z,4.70
2018-12-20T07:15:04.348Z,4.70
2018-12-20T07:17:31.960Z,4.80
2018-12-20T07:19:59.468Z,4.80
2018-12-20T07:22:27.056Z,4.80
2018-12-20T07:24:54.583Z,4.90
2018-12-20T07:27:22.084Z,4.90
2018-12-20T07:29:49.607Z,4.90
2018-12-20T07:32:24.898Z,5.00
2018-12-20T07:34:47.994Z,5.10
2018-12-20T07:37:15.876Z,5.10
2018-12-20T07:39:43.413Z,5.20
2018-12-20T07:42:10.917Z,5.20
2018-12-20T07:44:38.453Z,5.20
2018-12-20T07:47:05.965Z,5.30
2018-12-20T07:49:33.468Z,5.30
2018-12-20T07:52:00.992Z,5.30
2018-12-20T07:54:28.497Z,5.30
2018-12-20T07:56:56.023Z,5.40
2018-12-20T07:59:23.710Z,5.40
2018-12-20T08:01:51.473Z,5.40
2018-12-20T08:04:18.976Z,5.40
2018-12-20T08:06:46.508Z,5.40
2018-12-20T08:09:14.012Z,5.50
2018-12-20T08:11:41.546Z,5.50
2018-12-20T08:14:09.153Z,5.50
2018-12-20T08:16:36.680Z,5.50
2018-12-20T08:19:04.183Z,5.50
2018-12-20T08:21:31.685Z,5.60
2018-12-20T08:23:59.212Z,5.50
2018-12-20T08:26:26.716Z,5.50
2018-12-20T08:28:54.239Z,5.60
2018-12-20T08:31:21.739Z,5.60
2018-12-20T08:33:49.371Z,5.60
2018-12-20T08:36:16.888Z,5.70
2018-12-20T08:38:44.408Z,5.70
2018-12-20T08:41:11.909Z,5.80
2018-12-20T08:43:39.435Z,5.80
2018-12-20T08:46:06.951Z,5.80
2018-12-20T08:48:34.476Z,5.90
2018-12-20T08:51:02.057Z,5.90
2018-12-20T08:53:29.584Z,5.90
2018-12-20T08:55:57.084Z,5.90
2018-12-20T08:58:24.644Z,6.00
2018-12-20T09:00:52.153Z,6.00
2018-12-20T09:03:19.675Z,6.10
2018-12-20T09:05:47.179Z,6.30
2018-12-20T09:08:14.704Z,6.60
2018-12-20T09:10:42.204Z,6.90
2018-12-20T09:13:10.011Z,7.20
2018-12-20T09:15:37.639Z,7.40
2018-12-20T09:18:05.160Z,7.40
2018-12-20T09:20:33.069Z,7.40
2018-12-20T09:23:00.808Z,7.30
2018-12-20T09:25:28.308Z,7.10
2018-12-20T09:27:55.812Z,7.10
2018-12-20T09:30:30.300Z,7.00
2018-12-20T09:32:52.844Z,7.00
2018-12-20T09:35:20.373Z,6.90
2018-12-20T09:37:47.877Z,6.90
2018-12-20T09:40:15.404Z,6.90
2018-12-20T09:42:42.903Z,7.00
2018-12-20T09:45:10.430Z,6.90
2018-12-20T09:47:43.636Z,6.90
2018-12-20T09:50:11.156Z,7.00
2018-12-20T09:52:38.662Z,7.10
2018-12-20T09:55:06.261Z,7.20
2018-12-20T09:57:33.765Z,7.30
2018-12-20T10:00:01.292Z,7.40
2018-12-20T10:02:28.796Z,7.30
2018-12-20T10:04:56.320Z,7.40
2018-12-20T10:07:23.824Z,7.40
2018-12-20T10:09:51.348Z,7.70
2018-12-20T10:12:18.839Z,7.80
2018-12-20T10:14:46.360Z,8.00
2018-12-20T10:17:19.843Z,8.00
2018-12-20T10:19:43.409Z,8.00
2018-12-20T10:22:10.984Z,7.90
2018-12-20T10:24:38.501Z,7.90
2018-12-20T10:27:06.174Z,7.80
2018-12-20T10:29:33.709Z,7.70
2018-12-20T10:32:01.213Z,7.60
2018-12-20T10:34:28.720Z,7.50
2018-12-20T10:36:56.252Z,7.50
2018-12-20T10:39:23.755Z,7.50
2018-12-20T10:41:51.281Z,7.60
2018-12-20T10:44:18.785Z,7.60
2018-12-20T10:46:46.304Z,7.70
2018-12-20T10:49:13.828Z,7.80
2018-12-20T10:51:41.356Z,7.90
2018-12-20T10:54:08.858Z,8.10
2018-12-20T10:56:36.393Z,8.20
2018-12-20T10:59:03.910Z,8.20
2018-12-20T11:01:46.603Z,8.20
2018-12-20T11:04:20.112Z,8.10
2018-12-20T11:06:53.267Z,8.10
2018-12-20T11:09:26.448Z,8.00
2018-12-20T11:11:59.716Z,7.90
2018-12-20T11:14:27.220Z,7.90
2018-12-20T11:16:54.729Z,7.80
2018-12-20T11:19:22.257Z,7.80
2018-12-20T11:21:49.751Z,7.70
2018-12-20T11:24:17.274Z,7.70
2018-12-20T11:26:44.775Z,7.60
2018-12-20T11:29:12.301Z,7.60
2018-12-20T11:31:39.801Z,7.50
2018-12-20T11:34:07.319Z,7.50
2018-12-20T11:36:34.824Z,7.60
2018-12-20T11:39:08.360Z,7.50
2018-12-20T11:41:33.448Z,7.50
2018-12-20T11:44:01.051Z,7.50
2018-12-20T11:46:28.549Z,7.50
2018-12-20T11:48:56.063Z,7.50
2018-12-20T11:51:23.560Z,7.50
2018-12-20T11:53:51.084Z,7.50
2018-12-20T11:56:18.584Z,7.60
2018-12-20T11:58:46.112Z,7.60
2018-12-20T12:01:13.613Z,7.60
2018-12-20T12:03:41.136Z,7.60
2018-12-20T12:06:08.635Z,7.70
2018-12-20T12:08:36.141Z,7.70
2018-12-20T12:11:03.668Z,7.60
2018-12-20T12:13:31.169Z,7.60
2018-12-20T12:15:58.691Z,7.60
2018-12-20T12:18:26.192Z,7.70
2018-12-20T12:20:53.717Z,7.70
2018-12-20T12:23:21.216Z,7.70
2018-12-20T12:25:48.740Z,7.80
2018-12-20T12:28:16.241Z,7.80
2018-12-20T12:30:43.768Z,7.70
2018-12-20T12:33:11.264Z,7.70
2018-12-20T12:35:38.791Z,7.70
2018-12-20T12:38:06.288Z,7.70
2018-12-20T12:40:33.813Z,7.70
2018-12-20T12:43:01.313Z,7.80
2018-12-20T12:45:28.838Z,7.70
2018-12-20T12:48:03.685Z,7.80
2018-12-20T12:50:28.868Z,7.80
2018-12-20T12:52:56.368Z,7.80
2018-12-20T12:55:23.976Z,7.80
2018-12-20T12:57:51.471Z,7.70
2018-12-20T13:00:20.338Z,7.80
2018-12-20T13:02:48.340Z,7.80
2018-12-20T13:05:16.700Z,7.70
2018-12-20T13:07:44.304Z,7.70
2018-12-20T13:10:11.976Z,7.70
2018-12-20T13:12:39.504Z,7.60
2018-12-20T13:15:09.567Z,7.60
2018-12-20T13:17:37.172Z,7.50
2018-12-20T13:20:07.437Z,7.40
2018-12-20T13:22:34.960Z,7.30
2018-12-20T13:25:02.464Z,7.20
2018-12-20T13:27:29.988Z,7.20
2018-12-20T13:29:57.497Z,7.10
2018-12-20T13:32:25.020Z,7.00
2018-12-20T13:34:52.520Z,6.90
2018-12-20T13:37:20.045Z,6.80
2018-12-20T13:39:47.548Z,6.70
2018-12-20T13:42:15.049Z,6.70
2018-12-20T13:44:42.585Z,6.60
2018-12-20T13:47:10.083Z,6.50
2018-12-20T13:49:37.600Z,6.50
2018-12-20T13:52:05.098Z,6.50
2018-12-20T13:54:32.616Z,6.50
2018-12-20T13:57:00.107Z,6.50
2018-12-20T13:59:28.313Z,6.50
2018-12-20T14:01:55.808Z,6.50
2018-12-20T14:04:23.327Z,6.50
2018-12-20T14:06:50.829Z,6.50
2018-12-20T14:09:19.825Z,6.50
2018-12-20T14:11:47.571Z,6.50
2018-12-20T14:14:15.323Z,6.50
2018-12-20T14:16:42.840Z,6.50
2018-12-20T14:19:10.331Z,6.50
2018-12-20T14:21:37.856Z,6.50
2018-12-20T14:24:05.356Z,6.50
2018-12-20T14:26:32.872Z,6.50
2018-12-20T14:29:00.370Z,6.60
2018-12-20T14:31:27.896Z,6.60
2018-12-20T14:33:55.397Z,6.70
2018-12-20T14:36:22.891Z,6.70
2018-12-20T14:38:50.413Z,6.70
2018-12-20T14:41:17.912Z,6.70
2018-12-20T14:43:45.457Z,6.80
2018-12-20T14:46:13.043Z,6.80
2018-12-20T14:48:40.560Z,6.80
2018-12-20T14:51:08.051Z,6.80
2018-12-20T14:53:35.575Z,6.80
2018-12-20T14:56:03.080Z,6.70
2018-12-20T14:58:30.593Z,6.70
2018-12-20T15:00:58.120Z,6.60
2018-12-20T15:03:25.631Z,6.60
2018-12-20T15:05:53.156Z,6.60
2018-12-20T15:08:20.656Z,6.60
2018-12-20T15:10:48.181Z,6.60
2018-12-20T15:13:15.680Z,6.60
2018-12-20T15:15:43.200Z,6.60
2018-12-20T15:18:10.700Z,6.60
2018-12-20T15:20:40.713Z,6.60
2018-12-20T15:23:07.740Z,6.60
2018-12-20T15:25:35.236Z,6.60
2018-12-20T15:28:02.765Z,6.60
2018-12-20T15:30:30.319Z,6.50
2018-12-20T15:32:57.908Z,6.50
2018-12-20T15:35:25.408Z,6.50
2018-12-20T15:37:52.932Z,6.60
2018-12-20T15:40:20.432Z,6.50
2018-12-20T15:42:47.964Z,6.50
2018-12-20T15:45:15.461Z,6.50
2018-12-20T15:47:42.979Z,6.50
2018-12-20T15:50:12.184Z,6.50
2018-12-20T15:52:39.932Z,6.50
2018-12-20T15:55:07.436Z,6.50
2018-12-20T15:57:34.960Z,6.50
2018-12-20T16:00:02.544Z,6.40
2018-12-20T16:02:30.046Z,6.40
2018-12-20T16:04:57.571Z,6.40
2018-12-20T16:07:25.070Z,6.40
2018-12-20T16:09:52.592Z,6.40
2018-12-20T16:12:20.091Z,6.40
2018-12-20T16:14:47.593Z,6.40
2018-12-20T16:17:15.124Z,6.30
2018-12-20T16:19:42.618Z,6.40
2018-12-20T16:22:10.140Z,6.30
2018-12-20T16:24:37.640Z,6.30
2018-12-20T16:27:05.164Z,6.30
2018-12-20T16:29:32.664Z,6.30
2018-12-20T16:32:00.179Z,6.30
2018-12-20T16:34:27.676Z,6.30
2018-12-20T16:36:55.192Z,6.30
2018-12-20T16:39:22.687Z,6.30
2018-12-20T16:41:50.184Z,6.30
2018-12-20T16:44:17.704Z,6.30
2018-12-20T16:46:45.202Z,6.30
2018-12-20T16:49:13.676Z,6.30
2018-12-20T16:51:41.644Z,6.30
2018-12-20T16:54:09.173Z,6.30
2018-12-20T16:56:36.667Z,6.30
2018-12-20T16:59:04.247Z,6.30
2018-12-20T17:01:31.765Z,6.40
2018-12-20T17:03:59.266Z,6.40
2018-12-20T17:06:26.859Z,6.40
2018-12-20T17:08:54.356Z,6.40
2018-12-20T17:11:21.936Z,6.40
2018-12-20T17:13:49.536Z,6.40
2018-12-20T17:16:17.032Z,6.40
2018-12-20T17:18:44.560Z,6.30
2018-12-20T17:21:12.060Z,6.30
2018-12-20T17:23:39.584Z,6.30
2018-12-20T17:26:07.164Z,6.30
2018-12-20T17:28:34.664Z,6.30
2018-12-20T17:31:02.264Z,6.40
2018-12-20T17:33:29.767Z,6.40
2018-12-20T17:35:57.293Z,6.40
2018-12-20T17:38:24.792Z,6.40
2018-12-20T17:40:52.317Z,6.40
2018-12-20T17:43:19.832Z,6.50
2018-12-20T17:45:47.361Z,6.40
2018-12-20T17:48:14.865Z,6.50
2018-12-20T17:50:42.367Z,6.50
2018-12-20T17:53:09.891Z,6.50
2018-12-20T17:55:44.522Z,6.50
2018-12-20T17:58:06.932Z,6.50
2018-12-20T18:00:34.433Z,6.50
2018-12-20T18:03:01.953Z,6.60
2018-12-20T18:05:29.453Z,6.60
2018-12-20T18:07:56.968Z,6.60
2018-12-20T18:10:24.464Z,6.60
2018-12-20T18:12:51.988Z,6.60
2018-12-20T18:15:19.497Z,6.60
2018-12-20T18:17:47.018Z,6.60
2018-12-20T18:20:14.517Z,6.60
2018-12-20T18:22:42.051Z,6.70
2018-12-20T18:25:09.549Z,6.70
2018-12-20T18:27:37.044Z,6.70
2018-12-20T18:30:07.924Z,6.70
2018-12-20T18:32:35.502Z,6.70
2018-12-20T18:35:03.096Z,6.70
2018-12-20T18:37:30.589Z,6.70
2018-12-20T18:39:58.191Z,6.70
2018-12-20T18:42:25.696Z,6.70
2018-12-20T18:44:53.220Z,6.70
2018-12-20T18:47:20.846Z,6.70
2018-12-20T18:49:48.436Z,6.70
2018-12-20T18:52:15.962Z,6.70
2018-12-20T18:54:43.459Z,6.70
2018-12-20T18:57:10.975Z,6.60
2018-12-20T18:59:38.476Z,6.60
2018-12-20T19:02:05.997Z,6.60
2018-12-20T19:04:33.495Z,6.60
2018-12-20T19:07:01.020Z,6.60
2018-12-20T19:09:28.517Z,6.50
2018-12-20T19:11:56.036Z,6.50
2018-12-20T19:14:23.540Z,6.50
2018-12-20T19:16:51.059Z,6.50
2018-12-20T19:19:18.641Z,6.40
2018-12-20T19:21:46.136Z,6.40
2018-12-20T19:24:13.652Z,6.40
2018-12-20T19:26:41.150Z,6.40
2018-12-20T19:29:08.671Z,6.40
2018-12-20T19:31:36.167Z,6.30
2018-12-20T19:34:03.689Z,6.30
2018-12-20T19:36:31.188Z,6.30
2018-12-20T19:38:58.763Z,6.30
2018-12-20T19:41:26.285Z,6.30
2018-12-20T19:43:53.784Z,6.30
2018-12-20T19:46:21.308Z,6.40
2018-12-20T19:48:48.803Z,6.30
2018-12-20T19:51:16.316Z,6.40
2018-12-20T19:53:43.814Z,6.40
2018-12-20T19:56:11.312Z,6.30
2018-12-20T19:58:38.832Z,6.30
2018-12-20T20:01:06.336Z,6.30
2018-12-20T20:03:33.856Z,6.30
2018-12-20T20:06:01.386Z,6.20
2018-12-20T20:08:29.004Z,6.30
2018-12-20T20:10:56.495Z,6.30
2018-12-20T20:13:30.751Z,6.20
2018-12-20T20:15:53.535Z,6.20
2018-12-20T20:18:21.065Z,6.20
2018-12-20T20:20:48.565Z,6.20
2018-12-20T20:23:16.064Z,6.20
2018-12-20T20:25:43.591Z,6.30
2018-12-20T20:28:11.093Z,6.30
2018-12-20T20:30:38.616Z,6.30
2018-12-20T20:33:06.148Z,6.30
2018-12-20T20:35:33.759Z,6.30
2018-12-20T20:38:01.261Z,6.30
2018-12-20T20:40:28.783Z,6.30
2018-12-20T20:42:56.279Z,6.30
2018-12-20T20:45:23.800Z,6.30
2018-12-20T20:47:51.296Z,6.30
2018-12-20T20:50:22.698Z,6.30
2018-12-20T20:52:48.343Z,6.40
2018-12-20T20:55:15.865Z,6.40
2018-12-20T20:57:43.365Z,6.40
2018-12-20T21:00:10.892Z,6.40
2018-12-20T21:02:38.394Z,6.50
2018-12-20T21:05:07.080Z,6.40
2018-12-20T21:07:34.651Z,6.40
2018-12-20T21:10:02.190Z,6.40
2018-12-20T21:12:29.793Z,6.50
2018-12-20T21:14:57.308Z,6.40
2018-12-20T21:17:24.809Z,6.40
2018-12-20T21:19:52.323Z,6.40
2018-12-20T21:22:19.825Z,6.40
2018-12-20T21:24:47.352Z,6.50
2018-12-20T21:27:14.848Z,6.40
2018-12-20T21:29:42.373Z,6.40
2018-12-20T21:32:09.863Z,6.30
2018-12-20T21:34:37.360Z,6.30
2018-12-20T21:37:04.883Z,6.30
2018-12-20T21:39:32.375Z,6.30
2018-12-20T21:41:59.892Z,6.30
2018-12-20T21:44:27.392Z,6.30
2018-12-20T21:46:54.915Z,6.20
2018-12-20T21:49:22.407Z,6.20
2018-12-20T21:51:49.924Z,6.20
2018-12-20T21:54:17.415Z,6.20
2018-12-20T21:56:45.160Z,6.20
2018-12-20T21:59:12.659Z,6.20
2018-12-20T22:01:40.156Z,6.20
2018-12-20T22:04:07.671Z,6.20
2018-12-20T22:06:35.189Z,6.20
2018-12-20T22:09:04.268Z,6.20
2018-12-20T22:11:31.768Z,6.20
2018-12-20T22:13:59.289Z,6.20
2018-12-20T22:16:26.784Z,6.30
2018-12-20T22:18:54.313Z,6.30
2018-12-20T22:21:21.812Z,6.30
2018-12-20T22:23:49.311Z,6.30
2018-12-20T22:26:16.828Z,6.30
2018-12-20T22:28:44.323Z,6.30
2018-12-20T22:31:11.844Z,6.30
2018-12-20T22:33:39.335Z,6.30
2018-12-20T22:36:06.856Z,6.30
2018-12-20T22:38:34.347Z,6.30
2018-12-20T22:41:01.867Z,6.30
2018-12-20T22:43:29.367Z,6.30
2018-12-20T22:45:56.892Z,6.30
2018-12-20T22:48:24.387Z,6.30
2018-12-20T22:50:55.902Z,6.30
2018-12-20T22:53:21.427Z,6.30
2018-12-20T22:55:48.924Z,6.40
2018-12-20T22:58:16.447Z,6.30
2018-12-20T23:00:46.389Z,6.30
2018-12-20T23:03:13.907Z,6.30
2018-12-20T23:05:42.271Z,6.30
2018-12-20T23:08:09.792Z,6.40
2018-12-20T23:10:37.288Z,6.40
2018-12-20T23:13:04.809Z,6.40
2018-12-20T23:15:32.313Z,6.40
2018-12-20T23:17:59.838Z,6.40
2018-12-20T23:20:27.328Z,6.40
2018-12-20T23:22:54.820Z,6.40
2018-12-20T23:25:22.341Z,6.40
2018-12-20T23:27:49.839Z,6.50
2018-12-20T23:30:17.360Z,6.50
2018-12-20T23:32:44.855Z,6.50
2018-12-20T23:35:12.377Z,6.50
2018-12-20T23:37:39.882Z,6.50
2018-12-20T23:40:07.585Z,6.50
2018-12-20T23:42:35.080Z,6.50
2018-12-20T23:45:02.581Z,6.50
2018-12-20T23:47:30.099Z,6.50
2018-12-20T23:49:57.598Z,6.50
2018-12-20T23:52:25.125Z,6.50
2018-12-20T23:54:52.620Z,6.50
2018-12-20T23:57:20.136Z,6.40
2018-12-20T23:59:47.634Z,6.40
